sensor_id;sensor_type;location;lat;lon;timestamp;P1;durP1;ratioP1;P2;durP2;ratioP2
76814;SDS011;65768;49.906;19.384;2023-02-28T00:01:42;17.30;;;8.90;;
76814;SDS011;65768;49.906;19.384;2023-02-28T00:04:10;18.20;;;8.80;;
76814;SDS011;65768;49.906;19.384;2023-02-28T00:06:38;14.30;;;7.00;;
76814;SDS011;65768;49.906;19.384;2023-02-28T00:09:06;20.80;;;9.10;;
76814;SDS011;65768;49.906;19.384;2023-02-28T00:11:34;18.70;;;9.30;;
76814;SDS011;65768;49.906;19.384;2023-02-28T00:14:02;16.90;;;8.60;;
76814;SDS011;65768;49.906;19.384;2023-02-28T00:16:30;16.60;;;7.60;;
76814;SDS011;65768;49.906;19.384;2023-02-28T00:18:58;15.10;;;7.60;;
76814;SDS011;65768;49.906;19.384;2023-02-28T00:21:26;12.80;;;7.50;;
76814;SDS011;65768;49.906;19.384;2023-02-28T00:23:54;15.20;;;7.70;;
76814;SDS011;65768;49.906;19.384;2023-02-28T00:26:22;17.20;;;8.50;;
76814;SDS011;65768;49.906;19.384;2023-02-28T00:28:51;18.80;;;8.60;;
76814;SDS011;65768;49.906;19.384;2023-02-28T00:31:20;20.60;;;10.10;;
76814;SDS011;65768;49.906;19.384;2023-02-28T00:33:48;17.30;;;8.30;;
76814;SDS011;65768;49.906;19.384;2023-02-28T00:36:16;19.50;;;7.70;;
76814;SDS011;65768;49.906;19.384;2023-02-28T00:38:44;20.20;;;9.20;;
76814;SDS011;65768;49.906;19.384;2023-02-28T00:41:12;15.90;;;8.90;;
76814;SDS011;65768;49.906;19.384;2023-02-28T00:43:40;18.60;;;9.70;;
76814;SDS011;65768;49.906;19.384;2023-02-28T00:46:08;15.60;;;9.20;;
76814;SDS011;65768;49.906;19.384;2023-02-28T00:48:37;25.40;;;10.60;;
76814;SDS011;65768;49.906;19.384;2023-02-28T00:51:05;18.90;;;8.00;;
76814;SDS011;65768;49.906;19.384;2023-02-28T00:53:33;18.50;;;9.30;;
76814;SDS011;65768;49.906;19.384;2023-02-28T00:56:01;22.70;;;9.70;;
76814;SDS011;65768;49.906;19.384;2023-02-28T00:58:30;19.40;;;8.90;;
76814;SDS011;65768;49.906;19.384;2023-02-28T01:00:59;18.60;;;9.60;;
76814;SDS011;65768;49.906;19.384;2023-02-28T01:03:28;18.70;;;9.40;;
76814;SDS011;65768;49.906;19.384;2023-02-28T01:05:56;22.40;;;11.60;;
76814;SDS011;65768;49.906;19.384;2023-02-28T01:08:24;21.30;;;9.20;;
76814;SDS011;65768;49.906;19.384;2023-02-28T01:10:53;17.60;;;8.50;;
76814;SDS011;65768;49.906;19.384;2023-02-28T01:13:21;16.70;;;8.00;;
76814;SDS011;65768;49.906;19.384;2023-02-28T01:15:51;19.00;;;8.70;;
76814;SDS011;65768;49.906;19.384;2023-02-28T01:18:22;20.60;;;7.30;;
76814;SDS011;65768;49.906;19.384;2023-02-28T01:20:50;23.50;;;8.30;;
76814;SDS011;65768;49.906;19.384;2023-02-28T01:23:20;16.30;;;8.60;;
76814;SDS011;65768;49.906;19.384;2023-02-28T01:25:51;20.80;;;9.00;;
76814;SDS011;65768;49.906;19.384;2023-02-28T01:28:19;16.10;;;8.00;;
76814;SDS011;65768;49.906;19.384;2023-02-28T01:30:48;21.40;;;7.60;;
76814;SDS011;65768;49.906;19.384;2023-02-28T01:33:17;19.80;;;8.90;;
76814;SDS011;65768;49.906;19.384;2023-02-28T01:35:46;17.10;;;9.70;;
76814;SDS011;65768;49.906;19.384;2023-02-28T01:38:14;17.60;;;8.70;;
76814;SDS011;65768;49.906;19.384;2023-02-28T01:40:42;19.80;;;9.70;;
76814;SDS011;65768;49.906;19.384;2023-02-28T01:43:17;21.30;;;10.50;;
76814;SDS011;65768;49.906;19.384;2023-02-28T01:45:52;23.80;;;9.90;;
76814;SDS011;65768;49.906;19.384;2023-02-28T01:48:23;16.50;;;9.00;;
76814;SDS011;65768;49.906;19.384;2023-02-28T01:50:56;18.30;;;9.00;;
76814;SDS011;65768;49.906;19.384;2023-02-28T01:53:33;18.90;;;8.90;;
76814;SDS011;65768;49.906;19.384;2023-02-28T01:56:05;22.60;;;9.70;;
76814;SDS011;65768;49.906;19.384;2023-02-28T01:58:36;22.10;;;10.70;;
76814;SDS011;65768;49.906;19.384;2023-02-28T02:01:05;22.30;;;11.70;;
76814;SDS011;65768;49.906;19.384;2023-02-28T02:03:33;20.10;;;11.10;;
76814;SDS011;65768;49.906;19.384;2023-02-28T02:06:03;22.80;;;10.90;;
76814;SDS011;65768;49.906;19.384;2023-02-28T02:08:31;22.90;;;11.80;;
76814;SDS011;65768;49.906;19.384;2023-02-28T02:11:00;23.10;;;12.20;;
76814;SDS011;65768;49.906;19.384;2023-02-28T02:25:04;21.10;;;10.10;;
76814;SDS011;65768;49.906;19.384;2023-02-28T02:36:53;23.20;;;10.10;;
76814;SDS011;65768;49.906;19.384;2023-02-28T02:42:52;27.70;;;11.70;;
76814;SDS011;65768;49.906;19.384;2023-02-28T02:45:36;26.80;;;13.30;;
76814;SDS011;65768;49.906;19.384;2023-02-28T02:48:11;23.90;;;11.00;;
76814;SDS011;65768;49.906;19.384;2023-02-28T02:50:43;22.00;;;10.10;;
76814;SDS011;65768;49.906;19.384;2023-02-28T02:53:15;19.10;;;10.50;;
76814;SDS011;65768;49.906;19.384;2023-02-28T02:55:49;23.10;;;10.60;;
76814;SDS011;65768;49.906;19.384;2023-02-28T02:58:23;26.20;;;12.00;;
76814;SDS011;65768;49.906;19.384;2023-02-28T03:00:56;23.70;;;12.30;;
76814;SDS011;65768;49.906;19.384;2023-02-28T03:03:27;23.80;;;11.40;;
76814;SDS011;65768;49.906;19.384;2023-02-28T03:05:59;21.40;;;10.20;;
76814;SDS011;65768;49.906;19.384;2023-02-28T03:08:29;26.40;;;14.60;;
76814;SDS011;65768;49.906;19.384;2023-02-28T03:11:04;22.90;;;11.30;;
76814;SDS011;65768;49.906;19.384;2023-02-28T03:25:08;21.30;;;11.70;;
76814;SDS011;65768;49.906;19.384;2023-02-28T03:28:00;21.20;;;10.50;;
76814;SDS011;65768;49.906;19.384;2023-02-28T03:33:22;21.60;;;10.70;;
76814;SDS011;65768;49.906;19.384;2023-02-28T03:35:57;21.30;;;9.50;;
76814;SDS011;65768;49.906;19.384;2023-02-28T03:41:19;22.70;;;11.60;;
76814;SDS011;65768;49.906;19.384;2023-02-28T03:43:53;20.40;;;10.50;;
76814;SDS011;65768;49.906;19.384;2023-02-28T03:46:25;22.20;;;9.30;;
76814;SDS011;65768;49.906;19.384;2023-02-28T03:49:20;17.20;;;9.20;;
76814;SDS011;65768;49.906;19.384;2023-02-28T03:54:19;22.50;;;10.20;;
76814;SDS011;65768;49.906;19.384;2023-02-28T03:57:12;22.70;;;10.90;;
76814;SDS011;65768;49.906;19.384;2023-02-28T03:59:49;21.90;;;10.20;;
76814;SDS011;65768;49.906;19.384;2023-02-28T04:02:24;24.50;;;10.40;;
76814;SDS011;65768;49.906;19.384;2023-02-28T04:04:53;26.40;;;9.80;;
76814;SDS011;65768;49.906;19.384;2023-02-28T04:07:21;23.00;;;11.30;;
76814;SDS011;65768;49.906;19.384;2023-02-28T04:09:49;27.20;;;12.20;;
76814;SDS011;65768;49.906;19.384;2023-02-28T04:12:17;36.50;;;14.00;;
76814;SDS011;65768;49.906;19.384;2023-02-28T04:14:45;29.00;;;12.70;;
76814;SDS011;65768;49.906;19.384;2023-02-28T04:17:13;25.70;;;13.50;;
76814;SDS011;65768;49.906;19.384;2023-02-28T04:19:41;25.50;;;14.20;;
76814;SDS011;65768;49.906;19.384;2023-02-28T04:22:09;29.80;;;13.60;;
76814;SDS011;65768;49.906;19.384;2023-02-28T04:24:37;25.50;;;13.40;;
76814;SDS011;65768;49.906;19.384;2023-02-28T04:27:09;24.10;;;12.80;;
76814;SDS011;65768;49.906;19.384;2023-02-28T04:29:37;41.30;;;18.10;;
76814;SDS011;65768;49.906;19.384;2023-02-28T04:32:05;33.10;;;17.10;;
76814;SDS011;65768;49.906;19.384;2023-02-28T04:34:33;51.40;;;22.50;;
76814;SDS011;65768;49.906;19.384;2023-02-28T04:37:01;45.80;;;20.90;;
76814;SDS011;65768;49.906;19.384;2023-02-28T04:39:34;38.30;;;18.30;;
76814;SDS011;65768;49.906;19.384;2023-02-28T04:42:03;33.20;;;18.50;;
76814;SDS011;65768;49.906;19.384;2023-02-28T04:44:32;33.90;;;15.40;;
76814;SDS011;65768;49.906;19.384;2023-02-28T04:47:00;37.20;;;17.10;;
76814;SDS011;65768;49.906;19.384;2023-02-28T04:49:28;39.90;;;17.50;;
76814;SDS011;65768;49.906;19.384;2023-02-28T04:51:56;36.70;;;16.00;;
76814;SDS011;65768;49.906;19.384;2023-02-28T04:54:24;31.10;;;15.50;;
76814;SDS011;65768;49.906;19.384;2023-02-28T04:56:52;32.00;;;16.00;;
76814;SDS011;65768;49.906;19.384;2023-02-28T04:59:20;32.90;;;17.00;;
76814;SDS011;65768;49.906;19.384;2023-02-28T05:01:48;33.50;;;15.50;;
76814;SDS011;65768;49.906;19.384;2023-02-28T05:04:16;38.30;;;20.80;;
76814;SDS011;65768;49.906;19.384;2023-02-28T05:06:44;42.20;;;19.90;;
76814;SDS011;65768;49.906;19.384;2023-02-28T05:09:12;35.80;;;17.00;;
76814;SDS011;65768;49.906;19.384;2023-02-28T05:11:41;36.90;;;17.50;;
76814;SDS011;65768;49.906;19.384;2023-02-28T05:14:13;36.70;;;18.30;;
76814;SDS011;65768;49.906;19.384;2023-02-28T05:16:41;31.90;;;17.30;;
76814;SDS011;65768;49.906;19.384;2023-02-28T05:19:10;32.80;;;15.60;;
76814;SDS011;65768;49.906;19.384;2023-02-28T05:21:42;31.30;;;14.70;;
76814;SDS011;65768;49.906;19.384;2023-02-28T05:24:18;31.60;;;14.60;;
76814;SDS011;65768;49.906;19.384;2023-02-28T05:26:53;33.60;;;14.60;;
76814;SDS011;65768;49.906;19.384;2023-02-28T05:29:22;26.40;;;14.80;;
76814;SDS011;65768;49.906;19.384;2023-02-28T05:31:50;50.30;;;25.00;;
76814;SDS011;65768;49.906;19.384;2023-02-28T05:34:18;59.30;;;31.00;;
76814;SDS011;65768;49.906;19.384;2023-02-28T05:36:46;53.10;;;25.20;;
76814;SDS011;65768;49.906;19.384;2023-02-28T05:39:14;32.80;;;17.40;;
76814;SDS011;65768;49.906;19.384;2023-02-28T05:41:43;37.20;;;18.20;;
76814;SDS011;65768;49.906;19.384;2023-02-28T05:44:11;29.70;;;14.50;;
76814;SDS011;65768;49.906;19.384;2023-02-28T05:46:39;32.50;;;14.50;;
76814;SDS011;65768;49.906;19.384;2023-02-28T05:49:07;28.20;;;13.10;;
76814;SDS011;65768;49.906;19.384;2023-02-28T05:51:35;25.00;;;13.30;;
76814;SDS011;65768;49.906;19.384;2023-02-28T05:54:07;30.20;;;13.70;;
76814;SDS011;65768;49.906;19.384;2023-02-28T05:56:35;37.20;;;16.50;;
76814;SDS011;65768;49.906;19.384;2023-02-28T05:59:06;34.20;;;17.30;;
76814;SDS011;65768;49.906;19.384;2023-02-28T06:04:03;30.10;;;14.90;;
76814;SDS011;65768;49.906;19.384;2023-02-28T06:06:32;28.60;;;14.50;;
76814;SDS011;65768;49.906;19.384;2023-02-28T06:09:02;30.90;;;13.50;;
76814;SDS011;65768;49.906;19.384;2023-02-28T06:11:32;31.60;;;13.50;;
76814;SDS011;65768;49.906;19.384;2023-02-28T06:14:00;34.20;;;15.40;;
76814;SDS011;65768;49.906;19.384;2023-02-28T06:16:30;30.90;;;14.10;;
76814;SDS011;65768;49.906;19.384;2023-02-28T06:19:00;31.90;;;14.40;;
76814;SDS011;65768;49.906;19.384;2023-02-28T06:21:30;28.40;;;15.10;;
76814;SDS011;65768;49.906;19.384;2023-02-28T06:23:58;33.10;;;14.60;;
76814;SDS011;65768;49.906;19.384;2023-02-28T06:26:26;39.70;;;16.90;;
76814;SDS011;65768;49.906;19.384;2023-02-28T06:28:54;44.00;;;20.90;;
76814;SDS011;65768;49.906;19.384;2023-02-28T06:31:23;37.80;;;17.90;;
76814;SDS011;65768;49.906;19.384;2023-02-28T06:33:53;38.90;;;17.70;;
76814;SDS011;65768;49.906;19.384;2023-02-28T06:36:21;36.10;;;16.90;;
76814;SDS011;65768;49.906;19.384;2023-02-28T06:38:49;37.70;;;18.10;;
76814;SDS011;65768;49.906;19.384;2023-02-28T06:41:25;33.50;;;16.30;;
76814;SDS011;65768;49.906;19.384;2023-02-28T06:43:53;36.90;;;14.80;;
76814;SDS011;65768;49.906;19.384;2023-02-28T06:46:22;31.90;;;14.20;;
76814;SDS011;65768;49.906;19.384;2023-02-28T06:48:51;28.30;;;14.10;;
76814;SDS011;65768;49.906;19.384;2023-02-28T06:51:19;33.50;;;15.00;;
76814;SDS011;65768;49.906;19.384;2023-02-28T06:53:50;31.70;;;15.90;;
76814;SDS011;65768;49.906;19.384;2023-02-28T06:56:18;34.80;;;15.70;;
76814;SDS011;65768;49.906;19.384;2023-02-28T06:58:48;43.20;;;20.00;;
76814;SDS011;65768;49.906;19.384;2023-02-28T07:01:18;42.20;;;20.80;;
76814;SDS011;65768;49.906;19.384;2023-02-28T07:03:46;43.30;;;20.30;;
76814;SDS011;65768;49.906;19.384;2023-02-28T07:06:20;39.20;;;21.50;;
76814;SDS011;65768;49.906;19.384;2023-02-28T07:08:51;39.10;;;19.90;;
76814;SDS011;65768;49.906;19.384;2023-02-28T07:11:21;35.10;;;17.40;;
76814;SDS011;65768;49.906;19.384;2023-02-28T07:13:53;30.20;;;14.10;;
76814;SDS011;65768;49.906;19.384;2023-02-28T07:16:23;30.20;;;14.60;;
76814;SDS011;65768;49.906;19.384;2023-02-28T07:18:53;33.20;;;15.30;;
76814;SDS011;65768;49.906;19.384;2023-02-28T07:21:22;28.60;;;14.10;;
76814;SDS011;65768;49.906;19.384;2023-02-28T07:23:50;27.00;;;14.30;;
76814;SDS011;65768;49.906;19.384;2023-02-28T07:26:19;31.30;;;15.80;;
76814;SDS011;65768;49.906;19.384;2023-02-28T07:28:48;31.20;;;14.00;;
76814;SDS011;65768;49.906;19.384;2023-02-28T07:31:17;25.30;;;12.90;;
76814;SDS011;65768;49.906;19.384;2023-02-28T07:33:45;24.90;;;13.20;;
76814;SDS011;65768;49.906;19.384;2023-02-28T07:36:14;15.40;;;7.50;;
76814;SDS011;65768;49.906;19.384;2023-02-28T07:38:46;29.90;;;15.10;;
76814;SDS011;65768;49.906;19.384;2023-02-28T07:41:19;33.20;;;14.20;;
76814;SDS011;65768;49.906;19.384;2023-02-28T07:43:48;23.00;;;11.60;;
76814;SDS011;65768;49.906;19.384;2023-02-28T07:46:16;23.10;;;11.90;;
76814;SDS011;65768;49.906;19.384;2023-02-28T07:48:44;23.60;;;11.30;;
76814;SDS011;65768;49.906;19.384;2023-02-28T07:51:12;18.70;;;10.90;;
76814;SDS011;65768;49.906;19.384;2023-02-28T07:53:41;26.10;;;13.30;;
76814;SDS011;65768;49.906;19.384;2023-02-28T07:56:10;25.50;;;12.90;;
76814;SDS011;65768;49.906;19.384;2023-02-28T07:58:38;23.20;;;10.60;;
76814;SDS011;65768;49.906;19.384;2023-02-28T08:01:07;26.10;;;12.80;;
76814;SDS011;65768;49.906;19.384;2023-02-28T08:03:36;21.10;;;11.20;;
76814;SDS011;65768;49.906;19.384;2023-02-28T08:06:06;24.40;;;12.10;;
76814;SDS011;65768;49.906;19.384;2023-02-28T08:08:36;25.00;;;12.80;;
76814;SDS011;65768;49.906;19.384;2023-02-28T08:11:04;22.30;;;11.30;;
76814;SDS011;65768;49.906;19.384;2023-02-28T08:13:32;19.00;;;9.50;;
76814;SDS011;65768;49.906;19.384;2023-02-28T08:16:01;23.50;;;12.10;;
76814;SDS011;65768;49.906;19.384;2023-02-28T08:18:29;23.60;;;11.10;;
76814;SDS011;65768;49.906;19.384;2023-02-28T08:20:57;19.40;;;9.80;;
76814;SDS011;65768;49.906;19.384;2023-02-28T08:23:26;24.10;;;11.80;;
76814;SDS011;65768;49.906;19.384;2023-02-28T08:25:55;17.70;;;10.00;;
76814;SDS011;65768;49.906;19.384;2023-02-28T08:28:23;22.80;;;10.10;;
76814;SDS011;65768;49.906;19.384;2023-02-28T08:30:51;20.20;;;9.00;;
76814;SDS011;65768;49.906;19.384;2023-02-28T08:33:19;24.50;;;12.30;;
76814;SDS011;65768;49.906;19.384;2023-02-28T08:35:48;22.80;;;11.00;;
76814;SDS011;65768;49.906;19.384;2023-02-28T08:38:16;15.90;;;7.70;;
76814;SDS011;65768;49.906;19.384;2023-02-28T08:40:44;21.70;;;9.90;;
76814;SDS011;65768;49.906;19.384;2023-02-28T08:43:12;17.00;;;9.60;;
76814;SDS011;65768;49.906;19.384;2023-02-28T08:45:40;18.90;;;10.10;;
76814;SDS011;65768;49.906;19.384;2023-02-28T08:48:08;16.90;;;9.30;;
76814;SDS011;65768;49.906;19.384;2023-02-28T08:50:36;19.70;;;8.00;;
76814;SDS011;65768;49.906;19.384;2023-02-28T08:53:04;18.90;;;7.70;;
76814;SDS011;65768;49.906;19.384;2023-02-28T08:55:32;18.70;;;10.30;;
76814;SDS011;65768;49.906;19.384;2023-02-28T08:58:00;20.30;;;8.60;;
76814;SDS011;65768;49.906;19.384;2023-02-28T09:00:29;13.70;;;6.80;;
76814;SDS011;65768;49.906;19.384;2023-02-28T09:02:57;16.50;;;6.60;;
76814;SDS011;65768;49.906;19.384;2023-02-28T09:05:25;15.80;;;7.50;;
76814;SDS011;65768;49.906;19.384;2023-02-28T09:07:54;14.70;;;7.30;;
76814;SDS011;65768;49.906;19.384;2023-02-28T09:10:22;18.30;;;7.70;;
76814;SDS011;65768;49.906;19.384;2023-02-28T09:12:50;13.40;;;6.60;;
76814;SDS011;65768;49.906;19.384;2023-02-28T09:15:18;12.90;;;7.10;;
76814;SDS011;65768;49.906;19.384;2023-02-28T09:17:46;13.90;;;6.40;;
76814;SDS011;65768;49.906;19.384;2023-02-28T09:20:15;12.50;;;7.10;;
76814;SDS011;65768;49.906;19.384;2023-02-28T09:22:43;17.60;;;7.20;;
76814;SDS011;65768;49.906;19.384;2023-02-28T09:25:11;15.00;;;7.40;;
76814;SDS011;65768;49.906;19.384;2023-02-28T09:27:39;15.60;;;7.90;;
76814;SDS011;65768;49.906;19.384;2023-02-28T09:30:08;17.80;;;9.10;;
76814;SDS011;65768;49.906;19.384;2023-02-28T09:32:36;13.70;;;6.60;;
76814;SDS011;65768;49.906;19.384;2023-02-28T09:35:04;17.00;;;8.60;;
76814;SDS011;65768;49.906;19.384;2023-02-28T09:37:33;16.40;;;7.00;;
76814;SDS011;65768;49.906;19.384;2023-02-28T09:40:01;14.60;;;7.50;;
76814;SDS011;65768;49.906;19.384;2023-02-28T09:42:32;19.70;;;9.90;;
76814;SDS011;65768;49.906;19.384;2023-02-28T09:45:02;17.80;;;7.80;;
76814;SDS011;65768;49.906;19.384;2023-02-28T09:47:40;13.60;;;6.80;;
76814;SDS011;65768;49.906;19.384;2023-02-28T09:53:06;13.50;;;6.90;;
76814;SDS011;65768;49.906;19.384;2023-02-28T09:55:45;11.30;;;5.30;;
76814;SDS011;65768;49.906;19.384;2023-02-28T09:58:23;15.60;;;6.50;;
76814;SDS011;65768;49.906;19.384;2023-02-28T10:07:21;8.60;;;4.60;;
76814;SDS011;65768;49.906;19.384;2023-02-28T10:10:17;10.90;;;4.80;;
76814;SDS011;65768;49.906;19.384;2023-02-28T10:12:51;9.00;;;4.90;;
76814;SDS011;65768;49.906;19.384;2023-02-28T10:17:54;8.10;;;4.20;;
76814;SDS011;65768;49.906;19.384;2023-02-28T10:20:27;7.90;;;4.40;;
76814;SDS011;65768;49.906;19.384;2023-02-28T10:23:04;9.20;;;5.00;;
76814;SDS011;65768;49.906;19.384;2023-02-28T10:25:40;10.50;;;6.00;;
76814;SDS011;65768;49.906;19.384;2023-02-28T10:28:12;12.80;;;6.00;;
76814;SDS011;65768;49.906;19.384;2023-02-28T10:30:48;7.20;;;4.20;;
76814;SDS011;65768;49.906;19.384;2023-02-28T10:33:35;12.20;;;5.40;;
76814;SDS011;65768;49.906;19.384;2023-02-28T10:36:04;13.00;;;5.90;;
76814;SDS011;65768;49.906;19.384;2023-02-28T10:38:36;9.70;;;5.20;;
76814;SDS011;65768;49.906;19.384;2023-02-28T10:41:49;13.20;;;5.60;;
76814;SDS011;65768;49.906;19.384;2023-02-28T10:44:19;12.10;;;6.00;;
76814;SDS011;65768;49.906;19.384;2023-02-28T10:46:49;12.40;;;5.00;;
76814;SDS011;65768;49.906;19.384;2023-02-28T10:49:26;12.30;;;5.70;;
76814;SDS011;65768;49.906;19.384;2023-02-28T10:51:59;14.20;;;6.50;;
76814;SDS011;65768;49.906;19.384;2023-02-28T10:54:29;9.30;;;5.40;;
76814;SDS011;65768;49.906;19.384;2023-02-28T10:57:15;10.70;;;4.80;;
76814;SDS011;65768;49.906;19.384;2023-02-28T11:02:30;7.90;;;3.80;;
76814;SDS011;65768;49.906;19.384;2023-02-28T11:05:24;13.90;;;5.50;;
76814;SDS011;65768;49.906;19.384;2023-02-28T11:08:10;8.00;;;3.90;;
76814;SDS011;65768;49.906;19.384;2023-02-28T11:10:46;9.40;;;5.60;;
76814;SDS011;65768;49.906;19.384;2023-02-28T11:13:21;12.10;;;5.90;;
76814;SDS011;65768;49.906;19.384;2023-02-28T11:15:56;8.90;;;4.20;;
76814;SDS011;65768;49.906;19.384;2023-02-28T11:18:50;10.10;;;5.20;;
76814;SDS011;65768;49.906;19.384;2023-02-28T11:21:18;8.80;;;4.30;;
76814;SDS011;65768;49.906;19.384;2023-02-28T11:23:55;11.80;;;5.50;;
76814;SDS011;65768;49.906;19.384;2023-02-28T11:26:44;9.90;;;4.90;;
76814;SDS011;65768;49.906;19.384;2023-02-28T11:29:26;8.60;;;4.90;;
76814;SDS011;65768;49.906;19.384;2023-02-28T11:32:04;9.10;;;4.90;;
76814;SDS011;65768;49.906;19.384;2023-02-28T11:34:39;11.30;;;5.30;;
76814;SDS011;65768;49.906;19.384;2023-02-28T11:37:11;11.30;;;5.00;;
76814;SDS011;65768;49.906;19.384;2023-02-28T11:39:42;10.00;;;5.80;;
76814;SDS011;65768;49.906;19.384;2023-02-28T11:44:54;8.20;;;4.80;;
76814;SDS011;65768;49.906;19.384;2023-02-28T11:50:13;7.10;;;4.10;;
76814;SDS011;65768;49.906;19.384;2023-02-28T11:52:54;18.60;;;9.00;;
76814;SDS011;65768;49.906;19.384;2023-02-28T11:55:29;14.70;;;8.10;;
76814;SDS011;65768;49.906;19.384;2023-02-28T12:01:09;11.20;;;5.70;;
76814;SDS011;65768;49.906;19.384;2023-02-28T12:03:54;10.80;;;5.00;;
76814;SDS011;65768;49.906;19.384;2023-02-28T12:11:43;10.00;;;5.20;;
76814;SDS011;65768;49.906;19.384;2023-02-28T12:17:12;9.10;;;4.90;;
76814;SDS011;65768;49.906;19.384;2023-02-28T12:28:28;11.60;;;5.30;;
76814;SDS011;65768;49.906;19.384;2023-02-28T12:33:44;15.10;;;6.40;;
76814;SDS011;65768;49.906;19.384;2023-02-28T12:36:17;13.60;;;6.00;;
76814;SDS011;65768;49.906;19.384;2023-02-28T12:42:01;8.60;;;5.00;;
76814;SDS011;65768;49.906;19.384;2023-02-28T12:47:17;9.40;;;5.40;;
76814;SDS011;65768;49.906;19.384;2023-02-28T12:49:49;8.30;;;5.30;;
76814;SDS011;65768;49.906;19.384;2023-02-28T12:52:35;9.20;;;4.50;;
76814;SDS011;65768;49.906;19.384;2023-02-28T12:55:17;12.00;;;6.20;;
76814;SDS011;65768;49.906;19.384;2023-02-28T12:58:20;9.10;;;5.00;;
76814;SDS011;65768;49.906;19.384;2023-02-28T13:06:44;11.80;;;5.60;;
76814;SDS011;65768;49.906;19.384;2023-02-28T13:09:56;8.80;;;4.90;;
76814;SDS011;65768;49.906;19.384;2023-02-28T13:12:26;10.70;;;5.90;;
76814;SDS011;65768;49.906;19.384;2023-02-28T13:15:07;10.80;;;5.90;;
76814;SDS011;65768;49.906;19.384;2023-02-28T13:17:44;9.40;;;5.20;;
76814;SDS011;65768;49.906;19.384;2023-02-28T13:20:18;12.80;;;6.10;;
76814;SDS011;65768;49.906;19.384;2023-02-28T13:22:50;10.50;;;4.70;;
76814;SDS011;65768;49.906;19.384;2023-02-28T13:28:01;14.20;;;5.90;;
76814;SDS011;65768;49.906;19.384;2023-02-28T13:36:11;12.60;;;6.20;;
76814;SDS011;65768;49.906;19.384;2023-02-28T13:38:59;11.30;;;6.40;;
76814;SDS011;65768;49.906;19.384;2023-02-28T13:49:18;12.80;;;6.90;;
76814;SDS011;65768;49.906;19.384;2023-02-28T13:51:48;12.70;;;6.80;;
76814;SDS011;65768;49.906;19.384;2023-02-28T13:56:52;14.00;;;7.70;;
76814;SDS011;65768;49.906;19.384;2023-02-28T14:02:32;13.30;;;6.30;;
76814;SDS011;65768;49.906;19.384;2023-02-28T14:05:22;15.80;;;6.80;;
76814;SDS011;65768;49.906;19.384;2023-02-28T14:07:54;12.40;;;5.70;;
76814;SDS011;65768;49.906;19.384;2023-02-28T14:10:27;12.10;;;6.50;;
76814;SDS011;65768;49.906;19.384;2023-02-28T14:13:01;11.10;;;6.30;;
76814;SDS011;65768;49.906;19.384;2023-02-28T14:15:49;10.60;;;5.60;;
76814;SDS011;65768;49.906;19.384;2023-02-28T14:18:34;13.70;;;6.30;;
76814;SDS011;65768;49.906;19.384;2023-02-28T14:23:39;9.10;;;5.40;;
76814;SDS011;65768;49.906;19.384;2023-02-28T14:29:47;10.70;;;6.00;;
76814;SDS011;65768;49.906;19.384;2023-02-28T14:37:55;9.40;;;4.90;;
76814;SDS011;65768;49.906;19.384;2023-02-28T14:40:29;10.50;;;5.30;;
76814;SDS011;65768;49.906;19.384;2023-02-28T14:43:01;14.00;;;6.40;;
76814;SDS011;65768;49.906;19.384;2023-02-28T14:45:33;13.40;;;7.10;;
76814;SDS011;65768;49.906;19.384;2023-02-28T14:48:03;13.80;;;7.40;;
76814;SDS011;65768;49.906;19.384;2023-02-28T14:50:36;9.80;;;5.00;;
76814;SDS011;65768;49.906;19.384;2023-02-28T14:53:05;15.10;;;7.60;;
76814;SDS011;65768;49.906;19.384;2023-02-28T14:55:44;13.20;;;6.90;;
76814;SDS011;65768;49.906;19.384;2023-02-28T14:58:25;9.70;;;5.60;;
76814;SDS011;65768;49.906;19.384;2023-02-28T15:01:03;12.50;;;6.90;;
76814;SDS011;65768;49.906;19.384;2023-02-28T15:06:04;19.10;;;9.40;;
76814;SDS011;65768;49.906;19.384;2023-02-28T15:08:40;14.50;;;8.10;;
76814;SDS011;65768;49.906;19.384;2023-02-28T15:11:08;13.70;;;7.60;;
76814;SDS011;65768;49.906;19.384;2023-02-28T15:13:48;15.50;;;8.00;;
76814;SDS011;65768;49.906;19.384;2023-02-28T15:21:25;11.10;;;6.80;;
76814;SDS011;65768;49.906;19.384;2023-02-28T15:24:00;12.50;;;5.90;;
76814;SDS011;65768;49.906;19.384;2023-02-28T15:26:45;14.50;;;6.60;;
76814;SDS011;65768;49.906;19.384;2023-02-28T15:29:17;10.60;;;6.00;;
76814;SDS011;65768;49.906;19.384;2023-02-28T15:32:16;13.20;;;7.00;;
76814;SDS011;65768;49.906;19.384;2023-02-28T15:34:52;16.00;;;8.30;;
76814;SDS011;65768;49.906;19.384;2023-02-28T15:40:36;13.90;;;7.70;;
76814;SDS011;65768;49.906;19.384;2023-02-28T15:43:15;16.70;;;7.40;;
76814;SDS011;65768;49.906;19.384;2023-02-28T15:45:47;18.60;;;6.10;;
76814;SDS011;65768;49.906;19.384;2023-02-28T15:48:23;13.30;;;6.30;;
76814;SDS011;65768;49.906;19.384;2023-02-28T15:51:05;15.00;;;6.90;;
76814;SDS011;65768;49.906;19.384;2023-02-28T15:56:38;14.50;;;6.90;;
76814;SDS011;65768;49.906;19.384;2023-02-28T15:59:18;11.00;;;6.00;;
76814;SDS011;65768;49.906;19.384;2023-02-28T16:07:39;20.30;;;9.90;;
76814;SDS011;65768;49.906;19.384;2023-02-28T16:10:10;14.60;;;7.40;;
76814;SDS011;65768;49.906;19.384;2023-02-28T16:12:40;16.10;;;8.50;;
76814;SDS011;65768;49.906;19.384;2023-02-28T16:15:19;15.30;;;7.00;;
76814;SDS011;65768;49.906;19.384;2023-02-28T16:17:52;14.20;;;7.20;;
76814;SDS011;65768;49.906;19.384;2023-02-28T16:20:25;15.20;;;8.40;;
76814;SDS011;65768;49.906;19.384;2023-02-28T16:22:58;18.50;;;9.20;;
76814;SDS011;65768;49.906;19.384;2023-02-28T16:25:33;12.50;;;5.50;;
76814;SDS011;65768;49.906;19.384;2023-02-28T16:28:06;17.40;;;7.70;;
76814;SDS011;65768;49.906;19.384;2023-02-28T16:30:38;18.70;;;8.70;;
76814;SDS011;65768;49.906;19.384;2023-02-28T16:33:07;19.40;;;8.00;;
76814;SDS011;65768;49.906;19.384;2023-02-28T16:35:36;19.10;;;9.40;;
76814;SDS011;65768;49.906;19.384;2023-02-28T16:38:04;22.50;;;11.00;;
76814;SDS011;65768;49.906;19.384;2023-02-28T16:40:33;17.70;;;9.30;;
76814;SDS011;65768;49.906;19.384;2023-02-28T16:43:05;19.90;;;9.30;;
76814;SDS011;65768;49.906;19.384;2023-02-28T16:45:38;20.40;;;8.60;;
76814;SDS011;65768;49.906;19.384;2023-02-28T16:48:13;23.40;;;10.90;;
76814;SDS011;65768;49.906;19.384;2023-02-28T16:50:44;22.30;;;12.00;;
76814;SDS011;65768;49.906;19.384;2023-02-28T16:53:12;25.70;;;11.50;;
76814;SDS011;65768;49.906;19.384;2023-02-28T16:55:43;28.40;;;11.40;;
76814;SDS011;65768;49.906;19.384;2023-02-28T16:58:15;23.00;;;11.80;;
76814;SDS011;65768;49.906;19.384;2023-02-28T17:03:19;21.40;;;8.80;;
76814;SDS011;65768;49.906;19.384;2023-02-28T17:05:53;18.70;;;9.40;;
76814;SDS011;65768;49.906;19.384;2023-02-28T17:08:21;24.40;;;10.80;;
76814;SDS011;65768;49.906;19.384;2023-02-28T17:10:50;19.30;;;9.70;;
76814;SDS011;65768;49.906;19.384;2023-02-28T17:13:18;26.60;;;10.50;;
76814;SDS011;65768;49.906;19.384;2023-02-28T17:15:47;24.40;;;11.40;;
76814;SDS011;65768;49.906;19.384;2023-02-28T17:18:16;19.60;;;10.30;;
76814;SDS011;65768;49.906;19.384;2023-02-28T17:20:47;22.10;;;10.50;;